Time;durP1;ratioP1;P1;durP2;ratioP2;P2;SDS_P1;SDS_P2;PMS_P1;PMS_P2;Temp;Humidity;BMP_temperature;BMP_pressure;BME280_temperature;BME280_humidity;BME280_pressure;Samples;Min_cycle;Max_cycle;Signal;HPM_P1;HPM_P2
2021/12/10 00:01:48;;;;;;;62.90;28.77;;;0.80;99.90;;;;;;5111022;28;20036;-49
2021/12/10 00:04:15;;;;;;;71.80;28.70;;;0.80;99.90;;;;;;5110941;28;20120;-48
2021/12/10 00:06:57;;;;;;;66.30;27.27;;;0.80;99.90;;;;;;5110517;28;20502;-48
2021/12/10 00:09:30;;;;;;;60.00;24.63;;;0.80;99.90;;;;;;5110038;28;20423;-48
2021/12/10 00:12:03;;;;;;;64.78;27.90;;;0.80;99.90;;;;;;5109121;28;20024;-48
2021/12/10 00:14:31;;;;;;;67.38;26.67;;;0.80;99.90;;;;;;5097001;28;20220;-48
2021/12/10 00:16:59;;;;;;;60.40;26.33;;;0.70;99.90;;;;;;5107842;28;20051;-48
2021/12/10 00:19:32;;;;;;;64.15;25.17;;;0.70;99.90;;;;;;5100292;27;20020;-48
2021/12/10 00:22:00;;;;;;;59.78;25.95;;;0.70;99.90;;;;;;5108027;28;20392;-48
2021/12/10 00:24:29;;;;;;;59.53;25.85;;;0.70;99.90;;;;;;5110785;28;20019;-48
2021/12/10 00:26:56;;;;;;;70.78;27.65;;;0.70;99.90;;;;;;5109001;28;20027;-48
2021/12/10 00:29:22;;;;;;;73.28;27.70;;;0.60;99.90;;;;;;5108972;28;20020;-49
2021/12/10 00:32:08;;;;;;;62.60;24.55;;;0.50;99.90;;;;;;5110491;28;20042;-48
2021/12/10 00:34:50;;;;;;;71.32;26.52;;;0.50;99.90;;;;;;5108953;28;20435;-48
2021/12/10 00:37:19;;;;;;;81.10;26.95;;;0.50;99.90;;;;;;5109704;27;20036;-48
2021/12/10 00:39:52;;;;;;;65.97;24.00;;;0.50;99.90;;;;;;5110243;28;20020;-48
2021/12/10 00:42:21;;;;;;;66.95;25.25;;;0.50;99.90;;;;;;5110018;28;20101;-48
2021/12/10 00:44:47;;;;;;;60.80;24.63;;;0.50;99.90;;;;;;5110073;28;20047;-48
2021/12/10 00:47:13;;;;;;;67.25;24.40;;;0.50;99.90;;;;;;5108905;28;20047;-48
2021/12/10 00:49:39;;;;;;;58.22;23.42;;;0.50;99.90;;;;;;5098683;28;20016;-48
2021/12/10 00:52:07;;;;;;;58.72;25.08;;;0.50;99.90;;;;;;5108629;28;20023;-47
2021/12/10 00:54:33;;;;;;;61.13;23.67;;;0.60;99.90;;;;;;5109734;28;20038;-48
2021/12/10 00:57:01;;;;;;;51.83;21.13;;;0.60;99.90;;;;;;5109402;28;20028;-48
2021/12/10 00:59:26;;;;;;;56.90;21.33;;;0.70;99.90;;;;;;5108969;28;20314;-49
2021/12/10 01:01:52;;;;;;;58.65;23.23;;;0.70;99.90;;;;;;5109245;28;20528;-48
2021/12/10 01:04:26;;;;;;;70.82;24.35;;;0.80;99.90;;;;;;5108899;28;20028;-49
2021/12/10 01:06:53;;;;;;;52.28;21.20;;;0.90;99.90;;;;;;5108589;28;20528;-48
2021/12/10 01:09:25;;;;;;;54.13;21.80;;;1.00;99.90;;;;;;5109375;28;20019;-50
2021/12/10 01:12:04;;;;;;;50.72;20.17;;;1.00;99.90;;;;;;5109431;28;20051;-48
2021/12/10 01:14:52;;;;;;;50.07;19.97;;;1.10;99.90;;;;;;5105615;28;20024;-49
2021/12/10 01:25:41;;;;;;;49.58;18.35;;;1.30;99.90;;;;;;5068600;28;20063;-47
2021/12/10 01:28:08;;;;;;;40.78;17.27;;;1.30;99.90;;;;;;5066304;28;20058;-49
2021/12/10 01:30:38;;;;;;;45.60;17.58;;;1.40;99.90;;;;;;5068419;28;20420;-47
2021/12/10 01:33:08;;;;;;;41.15;16.45;;;1.50;99.90;;;;;;5068122;28;20494;-48
2021/12/10 01:35:38;;;;;;;41.55;16.55;;;1.50;99.90;;;;;;5066831;28;20028;-48
2021/12/10 01:38:06;;;;;;;37.00;14.85;;;1.60;99.90;;;;;;5067484;28;20032;-48
2021/12/10 01:40:35;;;;;;;36.97;14.90;;;1.70;99.90;;;;;;5068243;28;20116;-49
2021/12/10 01:43:07;;;;;;;33.47;15.35;;;1.80;99.90;;;;;;5072990;28;20028;-50
2021/12/10 01:45:46;;;;;;;41.22;16.70;;;1.80;99.90;;;;;;5099922;28;20150;-47
2021/12/10 01:48:24;;;;;;;30.30;13.13;;;1.90;99.90;;;;;;5107620;28;20024;-47
2021/12/10 01:50:52;;;;;;;34.65;13.38;;;1.90;99.90;;;;;;5108547;28;20027;-48
2021/12/10 01:53:21;;;;;;;28.88;12.52;;;2.00;99.90;;;;;;5108209;27;20033;-47
2021/12/10 01:55:50;;;;;;;29.25;11.82;;;2.10;99.90;;;;;;5108592;28;20081;-47
2021/12/10 01:58:19;;;;;;;30.15;11.55;;;2.10;99.90;;;;;;5107426;28;20111;-48
2021/12/10 02:00:50;;;;;;;34.23;12.47;;;2.20;99.90;;;;;;5106228;28;20023;-47
2021/12/10 02:03:16;;;;;;;28.00;12.23;;;2.20;99.90;;;;;;5108794;28;20023;-47
2021/12/10 02:05:42;;;;;;;28.83;13.38;;;2.20;99.90;;;;;;5107784;28;20039;-47
2021/12/10 02:08:08;;;;;;;27.30;12.55;;;2.20;99.90;;;;;;5107705;28;20027;-48
2021/12/10 02:10:34;;;;;;;32.05;12.93;;;2.30;99.90;;;;;;5108211;28;20015;-48
2021/12/10 02:13:00;;;;;;;27.83;11.93;;;2.30;99.90;;;;;;5098365;28;20048;-48
2021/12/10 02:15:28;;;;;;;26.65;11.70;;;2.30;99.90;;;;;;5094360;28;20072;-49
2021/12/10 02:17:57;;;;;;;35.00;13.18;;;2.30;99.90;;;;;;5107210;28;20535;-48
2021/12/10 02:20:33;;;;;;;25.10;12.30;;;2.30;99.90;;;;;;5108228;28;20024;-48
2021/12/10 02:23:01;;;;;;;29.65;12.82;;;2.30;99.90;;;;;;5107833;28;20019;-48
2021/12/10 02:25:29;;;;;;;26.13;12.07;;;2.30;99.90;;;;;;5106545;28;20477;-48
2021/12/10 02:27:56;;;;;;;28.63;12.88;;;2.30;99.90;;;;;;5107556;28;20107;-48
2021/12/10 02:30:27;;;;;;;27.63;13.70;;;2.30;99.90;;;;;;5108157;28;20431;-48
2021/12/10 02:32:53;;;;;;;34.15;14.23;;;2.30;99.90;;;;;;5108251;28;20022;-48
2021/12/10 02:35:19;;;;;;;33.47;14.93;;;2.30;99.90;;;;;;5107924;28;20023;-48
2021/12/10 02:37:46;;;;;;;33.95;15.20;;;2.30;99.90;;;;;;5092439;28;20397;-49
2021/12/10 02:40:15;;;;;;;35.92;15.45;;;2.20;99.90;;;;;;5099446;28;20031;-48
2021/12/10 02:42:41;;;;;;;29.65;13.93;;;2.20;99.90;;;;;;5106161;28;20028;-48
2021/12/10 02:45:09;;;;;;;30.95;14.35;;;2.20;99.90;;;;;;5107718;28;20034;-48
2021/12/10 02:47:35;;;;;;;33.63;14.18;;;2.20;99.90;;;;;;5107254;28;20582;-48
2021/12/10 02:50:00;;;;;;;30.25;13.70;;;2.10;99.90;;;;;;5107832;28;20118;-48
2021/12/10 02:52:27;;;;;;;35.53;14.10;;;2.10;99.90;;;;;;5108148;28;20027;-47
2021/12/10 02:54:54;;;;;;;35.35;14.07;;;2.10;99.90;;;;;;5107715;28;20496;-47
2021/12/10 02:57:20;;;;;;;34.58;15.05;;;2.10;99.90;;;;;;5107178;28;20028;-47
2021/12/10 02:59:46;;;;;;;32.17;14.40;;;2.10;99.90;;;;;;5107704;28;20027;-48
2021/12/10 03:02:16;;;;;;;31.20;14.50;;;2.10;99.90;;;;;;5107682;28;20031;-48
2021/12/10 03:04:42;;;;;;;33.22;14.82;;;2.00;99.90;;;;;;5107263;28;20508;-49
2021/12/10 03:07:14;;;;;;;30.65;13.73;;;2.10;99.90;;;;;;5100225;28;20039;-47
2021/12/10 03:09:42;;;;;;;30.77;13.80;;;2.10;99.90;;;;;;5099148;28;20015;-49
2021/12/10 03:12:10;;;;;;;32.97;14.80;;;2.10;99.90;;;;;;5107683;28;20031;-48
2021/12/10 03:14:37;;;;;;;32.50;14.85;;;2.10;99.90;;;;;;5107957;28;20032;-48
2021/12/10 03:17:08;;;;;;;29.50;14.82;;;2.10;99.90;;;;;;5107777;28;20232;-49
2021/12/10 03:19:34;;;;;;;36.05;16.45;;;2.10;99.90;;;;;;5107085;28;20189;-48
2021/12/10 03:22:00;;;;;;;33.92;15.02;;;2.10;99.90;;;;;;5107631;28;20051;-48
2021/12/10 03:24:28;;;;;;;45.33;19.65;;;2.10;99.90;;;;;;5107540;28;20019;-48
2021/12/10 03:27:00;;;;;;;60.35;25.95;;;2.00;99.90;;;;;;5107749;28;20110;-47
2021/12/10 03:29:27;;;;;;;54.35;22.35;;;2.00;99.90;;;;;;5105713;28;20016;-48
2021/12/10 03:31:55;;;;;;;52.40;23.63;;;1.90;99.90;;;;;;5111182;28;20034;-48
2021/12/10 03:34:21;;;;;;;63.63;26.05;;;1.90;99.90;;;;;;5110130;28;20500;-49
2021/12/10 03:36:49;;;;;;;53.90;23.95;;;1.80;99.90;;;;;;5103289;28;20028;-48
2021/12/10 03:39:16;;;;;;;60.90;27.65;;;1.70;99.90;;;;;;5100772;28;20059;-48
2021/12/10 03:41:44;;;;;;;55.58;24.67;;;1.70;99.90;;;;;;5111058;28;20708;-48
2021/12/10 03:44:11;;;;;;;69.72;29.25;;;1.70;99.90;;;;;;5110752;28;20077;-50
2021/12/10 03:46:37;;;;;;;59.75;27.30;;;1.60;99.90;;;;;;5109543;28;20126;-47
2021/12/10 03:49:05;;;;;;;65.45;26.17;;;1.60;99.90;;;;;;5110325;28;20030;-47
2021/12/10 03:51:32;;;;;;;60.72;25.98;;;1.50;99.90;;;;;;5111069;28;20434;-46
2021/12/10 03:53:58;;;;;;;72.20;27.27;;;1.50;99.90;;;;;;5110804;28;20050;-43
2021/12/10 03:56:27;;;;;;;67.88;27.15;;;1.40;99.90;;;;;;5110253;28;20072;-43
2021/12/10 03:58:56;;;;;;;67.57;27.38;;;1.40;99.90;;;;;;5109646;28;20051;-42
2021/12/10 04:01:27;;;;;;;61.40;27.85;;;1.40;99.90;;;;;;5110505;28;20031;-43
2021/12/10 04:03:53;;;;;;;58.88;25.63;;;1.40;99.90;;;;;;5110203;28;20096;-43
2021/12/10 04:06:20;;;;;;;63.50;26.88;;;1.40;99.90;;;;;;5107906;28;20415;-44
2021/12/10 04:08:47;;;;;;;64.97;26.52;;;1.40;99.90;;;;;;5097472;28;20069;-42
2021/12/10 04:11:15;;;;;;;63.00;27.05;;;1.40;99.90;;;;;;5108976;28;20032;-42
2021/12/10 04:13:42;;;;;;;63.42;26.58;;;1.40;99.90;;;;;;5107502;28;20008;-42
2021/12/10 04:16:07;;;;;;;60.25;25.35;;;1.30;99.90;;;;;;5101950;27;20034;-44
2021/12/10 04:18:35;;;;;;;58.40;24.38;;;1.40;99.90;;;;;;5109945;28;20646;-42
2021/12/10 04:21:02;;;;;;;60.50;25.30;;;1.40;99.90;;;;;;5110334;28;20019;-42
2021/12/10 04:23:28;;;;;;;59.92;26.65;;;1.40;99.90;;;;;;5110677;28;20023;-42
2021/12/10 04:25:54;;;;;;;65.40;27.30;;;1.40;99.90;;;;;;5110152;28;20058;-43
2021/12/10 04:28:21;;;;;;;59.10;25.17;;;1.40;99.90;;;;;;5109208;28;20020;-43
2021/12/10 04:30:48;;;;;;;56.22;23.83;;;1.40;99.90;;;;;;5110094;28;20023;-42
2021/12/10 04:33:18;;;;;;;49.53;21.95;;;1.40;99.90;;;;;;5109797;28;20085;-43
2021/12/10 04:35:47;;;;;;;59.20;23.88;;;1.40;99.90;;;;;;5110284;28;20102;-42
2021/12/10 04:38:14;;;;;;;50.55;23.75;;;1.40;99.90;;;;;;5109523;28;20024;-43
2021/12/10 04:40:40;;;;;;;56.63;23.65;;;1.40;99.90;;;;;;5109964;28;20064;-43
2021/12/10 04:43:06;;;;;;;52.33;23.17;;;1.40;99.90;;;;;;5105791;28;20477;-43
2021/12/10 04:45:32;;;;;;;53.40;22.35;;;1.40;99.90;;;;;;5100802;28;20024;-44
2021/12/10 04:47:57;;;;;;;51.72;22.95;;;1.40;99.90;;;;;;5107653;28;20070;-43
2021/12/10 04:50:27;;;;;;;50.33;21.90;;;1.40;99.90;;;;;;5109881;28;20027;-43
2021/12/10 04:52:54;;;;;;;50.28;20.75;;;1.50;99.90;;;;;;5109583;28;20020;-42
2021/12/10 04:55:20;;;;;;;45.78;21.27;;;1.40;99.90;;;;;;5109431;28;20439;-42
2021/12/10 04:57:46;;;;;;;61.97;22.65;;;1.40;99.90;;;;;;5108457;28;20028;-42
2021/12/10 05:00:19;;;;;;;49.33;20.55;;;1.40;99.90;;;;;;5109228;28;20087;-42
2021/12/10 05:02:45;;;;;;;49.83;22.85;;;1.50;99.90;;;;;;5108103;28;20027;-42
2021/12/10 05:05:12;;;;;;;51.67;22.50;;;1.50;99.90;;;;;;5108828;28;20023;-43
2021/12/10 05:07:38;;;;;;;50.70;22.23;;;1.50;99.90;;;;;;5108907;28;20509;-42
2021/12/10 05:10:09;;;;;;;62.60;24.55;;;1.50;99.90;;;;;;5108788;28;20089;-43
2021/12/10 05:12:35;;;;;;;54.67;22.17;;;1.40;99.90;;;;;;5109033;28;20024;-43
2021/12/10 05:15:05;;;;;;;49.13;21.65;;;1.40;99.90;;;;;;5098418;28;20031;-43
2021/12/10 05:17:32;;;;;;;51.83;21.10;;;1.40;99.90;;;;;;5108592;28;20750;-43
2021/12/10 05:20:00;;;;;;;46.70;21.27;;;1.40;99.90;;;;;;5102614;28;20402;-43
2021/12/10 05:22:27;;;;;;;44.80;20.08;;;1.40;99.90;;;;;;5088041;28;20016;-43
2021/12/10 05:24:52;;;;;;;42.42;20.08;;;1.40;99.90;;;;;;5088343;28;20055;-43
2021/12/10 05:27:18;;;;;;;43.40;19.25;;;1.40;99.90;;;;;;5087818;28;20061;-43
2021/12/10 05:29:43;;;;;;;41.75;19.67;;;1.40;99.90;;;;;;5087895;28;20422;-45
2021/12/10 05:32:11;;;;;;;44.58;19.58;;;1.40;99.90;;;;;;5087755;28;20107;-44
2021/12/10 05:34:40;;;;;;;44.80;20.63;;;1.40;99.90;;;;;;5087663;28;20019;-43
2021/12/10 05:37:07;;;;;;;45.38;19.25;;;1.40;99.90;;;;;;5087500;28;20028;-44
2021/12/10 05:39:32;;;;;;;49.97;18.88;;;1.40;99.90;;;;;;5087525;28;20027;-44
2021/12/10 05:42:00;;;;;;;41.33;18.77;;;1.40;99.90;;;;;;5087967;28;20016;-43
2021/12/10 05:44:25;;;;;;;44.67;18.63;;;1.40;99.90;;;;;;5089674;28;20520;-43
2021/12/10 05:46:51;;;;;;;38.80;18.20;;;1.40;99.90;;;;;;5089162;28;20055;-43
2021/12/10 05:49:17;;;;;;;43.15;19.50;;;1.40;99.90;;;;;;5086796;28;20024;-43
2021/12/10 05:51:42;;;;;;;43.70;19.83;;;1.40;99.90;;;;;;5088641;28;20153;-44
2021/12/10 05:54:08;;;;;;;41.90;19.10;;;1.40;99.90;;;;;;5096030;28;20032;-43
2021/12/10 05:56:33;;;;;;;42.47;19.55;;;1.40;99.90;;;;;;5088738;28;20024;-44
2021/12/10 05:58:59;;;;;;;42.50;18.45;;;1.40;99.90;;;;;;5085442;28;20016;-44
2021/12/10 06:01:25;;;;;;;38.30;19.23;;;1.40;99.90;;;;;;5087642;28;20055;-44
2021/12/10 06:03:52;;;;;;;39.30;19.27;;;1.30;99.90;;;;;;5087288;28;20477;-44
2021/12/10 06:06:27;;;;;;;40.75;18.50;;;1.30;99.90;;;;;;5085855;28;20028;-45
2021/12/10 06:08:53;;;;;;;40.47;18.45;;;1.30;99.90;;;;;;5087467;28;20021;-44
2021/12/10 06:11:20;;;;;;;37.88;18.48;;;1.30;99.90;;;;;;5087634;28;20030;-45
2021/12/10 06:13:46;;;;;;;37.80;16.75;;;1.30;99.90;;;;;;5094976;28;20343;-44
2021/12/10 06:16:14;;;;;;;42.00;18.45;;;1.20;99.90;;;;;;5099652;28;20019;-44
2021/12/10 06:18:39;;;;;;;39.28;18.95;;;1.10;99.90;;;;;;5107203;28;20023;-43
2021/12/10 06:21:05;;;;;;;44.60;19.48;;;1.10;99.90;;;;;;5096462;28;20454;-45
2021/12/10 06:23:31;;;;;;;40.50;17.65;;;1.10;99.90;;;;;;5097863;28;20413;-44
2021/12/10 06:25:57;;;;;;;44.22;19.88;;;1.00;99.90;;;;;;5100305;28;20095;-44
2021/12/10 06:28:23;;;;;;;42.70;20.23;;;1.00;99.90;;;;;;5097344;28;20022;-44
2021/12/10 06:30:51;;;;;;;40.65;19.75;;;1.00;99.90;;;;;;5097935;28;20099;-43
2021/12/10 06:33:19;;;;;;;36.83;18.42;;;0.90;99.90;;;;;;5107823;28;20019;-42
2021/12/10 06:35:48;;;;;;;36.15;16.95;;;0.90;99.90;;;;;;5106207;28;20491;-43
2021/12/10 06:38:14;;;;;;;41.00;17.70;;;0.90;99.90;;;;;;5107543;28;20357;-43
2021/12/10 06:40:42;;;;;;;40.83;18.55;;;0.90;99.90;;;;;;5107784;28;20031;-44
2021/12/10 06:43:08;;;;;;;49.05;20.20;;;0.80;99.90;;;;;;5106641;28;20481;-43
2021/12/10 06:45:36;;;;;;;48.10;21.52;;;0.80;99.90;;;;;;5095727;28;20089;-44
2021/12/10 06:48:04;;;;;;;44.72;18.75;;;0.80;99.90;;;;;;5087317;28;20127;-43
2021/12/10 06:50:33;;;;;;;39.83;19.27;;;0.80;99.90;;;;;;5095498;28;20077;-43
2021/12/10 06:52:59;;;;;;;45.42;19.33;;;0.80;99.90;;;;;;5107180;28;20024;-43
2021/12/10 06:55:26;;;;;;;44.72;20.00;;;0.70;99.90;;;;;;5106241;28;20488;-46
2021/12/10 06:57:52;;;;;;;40.13;19.60;;;0.70;99.90;;;;;;5096224;28;20063;-43
2021/12/10 07:00:37;;;;;;;41.08;19.08;;;0.60;99.90;;;;;;5086547;28;20068;-44
2021/12/10 07:03:03;;;;;;;39.58;18.90;;;0.60;99.90;;;;;;5086843;28;20558;-43
2021/12/10 07:05:28;;;;;;;38.50;18.75;;;0.60;99.90;;;;;;5088432;28;20115;-44
2021/12/10 07:07:54;;;;;;;43.47;20.95;;;0.70;99.90;;;;;;5090310;28;20563;-44
2021/12/10 07:10:19;;;;;;;42.20;18.98;;;0.70;99.90;;;;;;5096922;28;20420;-43
2021/12/10 07:12:45;;;;;;;37.22;18.55;;;0.70;99.90;;;;;;5079531;28;20032;-43
2021/12/10 07:15:14;;;;;;;35.08;18.55;;;0.70;99.90;;;;;;5093129;28;20028;-42
2021/12/10 07:17:43;;;;;;;41.58;18.73;;;0.70;99.90;;;;;;5089927;28;20353;-43
2021/12/10 07:20:12;;;;;;;39.40;19.55;;;0.70;99.90;;;;;;5089877;28;20065;-43
2021/12/10 07:22:38;;;;;;;36.47;18.20;;;0.80;99.90;;;;;;5089261;28;20035;-43
2021/12/10 07:25:06;;;;;;;41.72;19.48;;;0.70;99.90;;;;;;5087180;28;20026;-44
2021/12/10 07:27:32;;;;;;;40.85;19.08;;;0.80;99.90;;;;;;5087726;28;20444;-44
2021/12/10 07:29:58;;;;;;;37.35;18.38;;;0.80;99.90;;;;;;5088424;28;20032;-43
2021/12/10 07:32:24;;;;;;;33.65;17.70;;;0.80;99.90;;;;;;5086964;28;20031;-43
2021/12/10 07:34:49;;;;;;;39.65;17.98;;;0.80;99.90;;;;;;5088383;28;20035;-43
2021/12/10 07:37:15;;;;;;;35.78;17.15;;;0.80;99.90;;;;;;5086363;28;20028;-43
2021/12/10 07:39:41;;;;;;;36.88;17.52;;;0.80;99.90;;;;;;5089612;28;20050;-43
2021/12/10 07:42:08;;;;;;;35.38;16.55;;;0.80;99.90;;;;;;5089863;28;20020;-43
2021/12/10 07:44:38;;;;;;;34.50;16.40;;;0.90;99.90;;;;;;5089903;28;20107;-43
2021/12/10 07:47:09;;;;;;;34.47;16.70;;;0.90;99.90;;;;;;5089417;28;20032;-44
2021/12/10 07:49:37;;;;;;;33.60;16.77;;;0.90;99.90;;;;;;5089341;28;20430;-43
2021/12/10 07:52:06;;;;;;;29.75;15.02;;;1.00;99.90;;;;;;5089656;28;20024;-43
2021/12/10 07:54:32;;;;;;;31.75;15.63;;;1.00;99.90;;;;;;5089411;28;20031;-43
2021/12/10 07:56:58;;;;;;;28.02;15.20;;;1.00;99.90;;;;;;5089851;28;20036;-43
2021/12/10 07:59:23;;;;;;;28.25;13.80;;;1.00;99.90;;;;;;5089233;28;20362;-43
2021/12/10 08:01:50;;;;;;;27.90;14.00;;;1.00;99.90;;;;;;5088430;28;20504;-44
2021/12/10 08:04:15;;;;;;;30.55;16.55;;;1.10;99.90;;;;;;5091533;28;20064;-43
2021/12/10 08:06:41;;;;;;;30.75;15.70;;;1.10;99.90;;;;;;5097295;28;20048;-46
2021/12/10 08:09:08;;;;;;;27.77;15.60;;;1.10;99.90;;;;;;5100970;28;20020;-43
2021/12/10 08:11:34;;;;;;;29.13;14.10;;;1.10;99.90;;;;;;5097063;28;20016;-43
2021/12/10 08:14:00;;;;;;;30.45;15.10;;;1.00;99.90;;;;;;5070557;28;20467;-43
2021/12/10 08:16:25;;;;;;;39.42;19.08;;;1.00;99.90;;;;;;5069122;28;20034;-43
2021/12/10 08:18:52;;;;;;;32.72;18.42;;;0.90;99.90;;;;;;5068266;28;20478;-43
2021/12/10 08:21:19;;;;;;;27.15;15.52;;;0.90;99.90;;;;;;5068832;28;20119;-43
2021/12/10 08:23:45;;;;;;;34.00;18.67;;;0.90;99.90;;;;;;5068852;28;20247;-42
2021/12/10 08:26:12;;;;;;;30.00;16.83;;;0.90;99.90;;;;;;5068734;28;20517;-42
2021/12/10 08:28:40;;;;;;;36.80;17.83;;;0.90;99.90;;;;;;5066897;28;20055;-43
2021/12/10 08:31:06;;;;;;;42.47;17.65;;;0.90;99.90;;;;;;5068564;28;20509;-42
2021/12/10 08:33:32;;;;;;;36.25;17.98;;;0.90;99.90;;;;;;5068599;28;20027;-43
2021/12/10 08:36:03;;;;;;;33.10;17.05;;;0.90;99.90;;;;;;5069371;28;20695;-42
2021/12/10 08:38:30;;;;;;;35.13;18.65;;;0.90;99.90;;;;;;5088645;28;20234;-42
2021/12/10 08:41:00;;;;;;;31.52;17.33;;;0.90;99.90;;;;;;5087011;28;20469;-43
2021/12/10 08:43:27;;;;;;;34.30;16.67;;;0.90;99.90;;;;;;5086221;28;20043;-42
2021/12/10 08:45:53;;;;;;;30.15;15.30;;;0.90;99.90;;;;;;5088971;28;20466;-42
2021/12/10 08:48:20;;;;;;;31.38;16.73;;;1.00;99.90;;;;;;5086320;28;20047;-43
2021/12/10 08:50:46;;;;;;;31.05;16.70;;;1.00;99.90;;;;;;5086982;28;20485;-42
2021/12/10 08:53:13;;;;;;;35.83;18.55;;;1.10;99.90;;;;;;5087203;28;20027;-43
2021/12/10 08:55:43;;;;;;;29.75;16.58;;;1.10;99.90;;;;;;5086821;28;20400;-42
2021/12/10 08:58:09;;;;;;;38.55;17.48;;;1.10;99.90;;;;;;5086337;28;20028;-42
2021/12/10 09:00:36;;;;;;;33.13;17.17;;;1.20;99.90;;;;;;5086838;28;20032;-43
2021/12/10 09:03:02;;;;;;;32.25;16.20;;;1.30;99.90;;;;;;5087782;28;20028;-42
2021/12/10 09:05:29;;;;;;;37.70;19.35;;;1.30;99.90;;;;;;5087250;28;20038;-43
2021/12/10 09:07:55;;;;;;;34.30;18.60;;;1.30;99.90;;;;;;5087569;28;20032;-43
2021/12/10 09:10:26;;;;;;;37.33;17.83;;;1.30;99.90;;;;;;5088386;28;20455;-43
2021/12/10 09:12:52;;;;;;;37.58;17.98;;;1.30;99.90;;;;;;5085461;28;20107;-43
2021/12/10 09:15:21;;;;;;;30.20;17.55;;;1.30;99.90;;;;;;5067392;28;20040;-44
2021/12/10 09:17:48;;;;;;;35.53;18.45;;;1.30;99.90;;;;;;5067194;28;20020;-43
2021/12/10 09:20:19;;;;;;;34.17;17.23;;;1.30;99.90;;;;;;5067957;28;20503;-43
2021/12/10 09:22:46;;;;;;;34.60;17.25;;;1.30;99.90;;;;;;5067975;28;20025;-45
2021/12/10 09:25:13;;;;;;;37.22;17.85;;;1.40;99.90;;;;;;5067487;28;20493;-44
2021/12/10 09:27:39;;;;;;;29.98;17.95;;;1.40;99.90;;;;;;5066078;28;20078;-43
2021/12/10 09:30:08;;;;;;;35.95;17.77;;;1.50;99.90;;;;;;5067120;28;20390;-44
2021/12/10 09:32:34;;;;;;;39.55;19.00;;;1.60;99.90;;;;;;5067100;28;20021;-42
2021/12/10 09:35:03;;;;;;;38.58;19.67;;;1.60;99.90;;;;;;5067510;28;20036;-44
2021/12/10 09:37:30;;;;;;;45.42;21.70;;;1.50;99.90;;;;;;5066972;28;20040;-45
2021/12/10 09:39:55;;;;;;;43.83;21.58;;;1.40;99.90;;;;;;5066263;28;20071;-43
2021/12/10 09:42:22;;;;;;;40.15;21.27;;;1.40;99.90;;;;;;5066808;28;20044;-44
2021/12/10 09:44:53;;;;;;;47.17;22.83;;;1.20;99.90;;;;;;5067650;28;20029;-44
2021/12/10 09:47:19;;;;;;;;;;;1.20;99.90;;;;;;5066596;28;20033;-44
2021/12/10 09:49:49;;;;;;;49.83;20.95;;;1.10;99.90;;;;;;5067150;28;19904;-42
2021/12/10 09:52:19;;;;;;;42.00;21.50;;;1.10;99.90;;;;;;5067132;28;20033;-43
2021/12/10 09:54:47;;;;;;;45.03;22.25;;;1.10;99.90;;;;;;5067111;28;20054;-42
2021/12/10 09:57:21;;;;;;;48.20;22.33;;;1.10;99.90;;;;;;5065878;28;20171;-43
2021/12/10 09:59:51;;;;;;;43.05;22.48;;;1.10;99.90;;;;;;5067123;28;20086;-43
2021/12/10 10:02:18;;;;;;;47.35;23.13;;;1.10;99.90;;;;;;5067160;28;20017;-43
2021/12/10 10:04:49;;;;;;;48.88;23.85;;;1.20;99.90;;;;;;5066969;28;20039;-44
2021/12/10 10:07:20;;;;;;;43.47;21.30;;;1.20;99.90;;;;;;5066716;28;20482;-43
2021/12/10 10:09:50;;;;;;;44.47;21.60;;;1.30;99.90;;;;;;5067015;28;20135;-44
2021/12/10 10:12:29;;;;;;;43.72;22.02;;;1.40;99.90;;;;;;5066841;28;20092;-43
2021/12/10 10:14:55;;;;;;;54.67;24.77;;;1.60;99.90;;;;;;5068763;28;20017;-42
2021/12/10 10:17:22;;;;;;;43.08;22.02;;;1.70;99.90;;;;;;5065220;28;20031;-44
2021/12/10 10:19:49;;;;;;;43.75;22.13;;;1.80;99.90;;;;;;5067495;28;20540;-44
2021/12/10 10:22:19;;;;;;;51.25;23.23;;;1.80;99.90;;;;;;5066974;28;20071;-43
2021/12/10 10:24:44;;;;;;;45.47;21.52;;;2.00;99.90;;;;;;5066579;28;20557;-43
2021/12/10 10:27:18;;;;;;;43.28;21.85;;;2.00;99.90;;;;;;5065229;28;20233;-43
2021/12/10 10:29:53;;;;;;;44.65;22.30;;;2.00;99.90;;;;;;5066520;28;20510;-43
2021/12/10 10:32:21;;;;;;;46.58;22.60;;;2.10;99.90;;;;;;5067087;28;20020;-43
2021/12/10 10:34:52;;;;;;;45.55;22.27;;;2.10;99.90;;;;;;5066742;28;20577;-43
2021/12/10 10:37:18;;;;;;;;;;;2.10;99.90;;;;;;5067142;28;20444;-43
2021/12/10 10:39:43;;;;;;;45.33;21.50;;;2.10;99.90;;;;;;5067218;28;19904;-43
2021/12/10 10:42:15;;;;;;;45.22;22.85;;;2.10;99.90;;;;;;5070728;28;20055;-43
2021/12/10 10:44:42;;;;;;;45.15;21.55;;;2.10;99.90;;;;;;5070894;28;20081;-44
2021/12/10 10:47:09;;;;;;;55.20;25.90;;;2.20;99.90;;;;;;5070590;28;20043;-44
2021/12/10 10:49:44;;;;;;;48.20;22.88;;;2.20;99.90;;;;;;5070410;28;20604;-43
2021/12/10 10:52:33;;;;;;;44.92;23.58;;;2.20;99.90;;;;;;5068824;28;20436;-43
2021/12/10 10:55:24;;;;;;;51.15;23.95;;;2.20;99.90;;;;;;5070753;28;20024;-43
2021/12/10 10:57:49;;;;;;;;;;;2.20;99.90;;;;;;5070353;28;20032;-44
2021/12/10 11:00:22;;;;;;;46.25;22.58;;;2.20;99.90;;;;;;5069972;28;20419;-42
2021/12/10 11:02:52;;;;;;;44.35;21.42;;;2.20;99.90;;;;;;5070942;28;20401;-44
2021/12/10 11:05:22;;;;;;;48.90;23.30;;;2.30;99.90;;;;;;5070230;28;20035;-43
2021/12/10 11:07:51;;;;;;;53.83;25.77;;;2.30;99.90;;;;;;5069126;28;20040;-43
2021/12/10 11:10:38;;;;;;;54.90;23.83;;;2.40;99.90;;;;;;5069724;28;20518;-44
2021/12/10 11:13:14;;;;;;;54.35;23.60;;;2.40;99.90;;;;;;5070071;28;20031;-43
2021/12/10 11:15:57;;;;;;;47.25;23.08;;;2.50;99.90;;;;;;5067679;28;20024;-43
2021/12/10 11:18:23;;;;;;;49.85;24.77;;;2.50;99.90;;;;;;5067708;28;20028;-43
2021/12/10 11:20:48;;;;;;;44.40;22.67;;;2.70;99.90;;;;;;5072573;28;20622;-42
2021/12/10 11:23:16;;;;;;;50.45;24.10;;;2.80;99.90;;;;;;5088792;28;20035;-43
2021/12/10 11:25:48;;;;;;;49.15;24.15;;;2.90;99.90;;;;;;5089661;28;20031;-43
2021/12/10 11:28:19;;;;;;;44.72;23.50;;;3.00;99.90;;;;;;5083559;28;20418;-43
2021/12/10 11:30:50;;;;;;;42.60;22.08;;;3.10;99.90;;;;;;5088962;28;20060;-44
2021/12/10 11:33:23;;;;;;;;;;;3.20;99.90;;;;;;5087529;28;20032;-45
2021/12/10 11:35:52;;;;;;;37.72;20.35;;;3.20;99.90;;;;;;5089029;28;20005;-45
2021/12/10 11:38:24;;;;;;;42.03;23.10;;;3.20;99.90;;;;;;5088359;28;20024;-43
2021/12/10 11:41:01;;;;;;;45.28;23.77;;;3.20;99.90;;;;;;5089811;28;20035;-43
2021/12/10 11:46:32;;;;;;;42.50;22.77;;;3.10;99.90;;;;;;5089617;28;20054;-43
2021/12/10 11:49:09;;;;;;;41.72;22.80;;;3.10;99.90;;;;;;5088871;28;20031;-44
2021/12/10 11:51:39;;;;;;;44.40;23.05;;;3.20;99.90;;;;;;5088439;28;20016;-43
2021/12/10 11:54:17;;;;;;;49.67;25.42;;;3.20;99.90;;;;;;5089736;28;20024;-43
2021/12/10 11:57:13;;;;;;;54.45;26.42;;;3.10;99.90;;;;;;5089768;28;20468;-43
2021/12/10 11:59:50;;;;;;;47.05;24.40;;;3.10;99.90;;;;;;5089183;28;20060;-43
2021/12/10 12:02:19;;;;;;;52.17;25.95;;;3.10;99.90;;;;;;5089613;28;20020;-43
2021/12/10 12:04:54;;;;;;;55.50;27.67;;;3.10;99.90;;;;;;5089514;28;20076;-46
2021/12/10 12:07:36;;;;;;;48.30;26.30;;;3.10;99.90;;;;;;5088922;28;20024;-44
2021/12/10 12:10:27;;;;;;;58.33;28.42;;;3.10;99.90;;;;;;5089330;28;20048;-43
2021/12/10 12:12:55;;;;;;;57.53;30.13;;;3.10;99.90;;;;;;5088659;28;20046;-43
2021/12/10 12:15:20;;;;;;;62.85;30.52;;;3.10;99.90;;;;;;5087610;28;20363;-45
2021/12/10 12:17:51;;;;;;;57.38;28.17;;;3.00;99.90;;;;;;5075975;28;20325;-43
2021/12/10 12:20:35;;;;;;;60.75;30.75;;;3.00;99.90;;;;;;5067258;28;20028;-43
2021/12/10 12:25:56;;;;;;;58.90;28.65;;;2.90;99.90;;;;;;5067886;28;20044;-43
2021/12/10 12:28:24;;;;;;;61.03;28.77;;;2.90;99.90;;;;;;5067555;28;20021;-43
2021/12/10 12:30:58;;;;;;;60.22;29.00;;;2.90;99.90;;;;;;5068761;28;20024;-43
2021/12/10 12:33:25;;;;;;;57.22;29.08;;;2.90;99.90;;;;;;5068894;28;20024;-43
2021/12/10 12:35:53;;;;;;;52.13;27.25;;;2.90;99.90;;;;;;5068409;28;20032;-43
2021/12/10 12:38:25;;;;;;;60.00;27.65;;;2.90;99.90;;;;;;5068185;28;20032;-43
2021/12/10 12:41:16;;;;;;;52.33;27.10;;;3.00;99.90;;;;;;5068621;28;20130;-44
2021/12/10 12:43:44;;;;;;;49.00;25.83;;;3.00;99.90;;;;;;5069223;28;20077;-43
2021/12/10 12:46:10;;;;;;;56.72;27.15;;;3.00;99.90;;;;;;5068340;28;20483;-43
2021/12/10 12:48:51;;;;;;;58.75;28.02;;;3.00;99.90;;;;;;5067965;28;20043;-42
2021/12/10 12:51:20;;;;;;;56.88;27.98;;;3.00;99.90;;;;;;5068564;28;20063;-43
2021/12/10 12:53:47;;;;;;;59.88;29.58;;;3.00;99.90;;;;;;5068445;28;20402;-43
2021/12/10 12:56:15;;;;;;;55.15;28.02;;;3.00;99.90;;;;;;5066817;28;20042;-43
2021/12/10 12:58:55;;;;;;;53.08;27.02;;;3.00;99.90;;;;;;5065948;28;20028;-42
2021/12/10 13:01:27;;;;;;;60.45;30.52;;;3.00;99.90;;;;;;5067842;28;20055;-44